sensor_id;sensor_type;location;lat;lon;timestamp;P1;durP1;ratioP1;P2;durP2;ratioP2
62401;SDS011;48440;51.224;22.506;2023-06-24T00:00:36;36.08;;;21.40;;
62401;SDS011;48440;51.224;22.506;2023-06-24T00:03:02;43.22;;;23.65;;
62401;SDS011;48440;51.224;22.506;2023-06-24T00:05:27;46.10;;;23.75;;
62401;SDS011;48440;51.224;22.506;2023-06-24T00:07:53;33.83;;;21.13;;
62401;SDS011;48440;51.224;22.506;2023-06-24T00:10:22;40.13;;;19.38;;
62401;SDS011;48440;51.224;22.506;2023-06-24T00:12:48;32.67;;;20.98;;
62401;SDS011;48440;51.224;22.506;2023-06-24T00:15:13;34.78;;;19.48;;
62401;SDS011;48440;51.224;22.506;2023-06-24T00:17:39;35.40;;;20.33;;
62401;SDS011;48440;51.224;22.506;2023-06-24T00:20:05;35.65;;;20.42;;
62401;SDS011;48440;51.224;22.506;2023-06-24T00:22:36;31.90;;;20.77;;
62401;SDS011;48440;51.224;22.506;2023-06-24T00:25:04;30.00;;;20.42;;
62401;SDS011;48440;51.224;22.506;2023-06-24T00:27:30;30.25;;;19.35;;
62401;SDS011;48440;51.224;22.506;2023-06-24T00:29:55;29.70;;;19.35;;
62401;SDS011;48440;51.224;22.506;2023-06-24T00:32:21;29.90;;;19.73;;
62401;SDS011;48440;51.224;22.506;2023-06-24T00:34:46;26.63;;;17.60;;
62401;SDS011;48440;51.224;22.506;2023-06-24T00:37:12;28.90;;;18.55;;
62401;SDS011;48440;51.224;22.506;2023-06-24T00:39:38;31.90;;;18.48;;
62401;SDS011;48440;51.224;22.506;2023-06-24T00:42:04;26.08;;;17.33;;
62401;SDS011;48440;51.224;22.506;2023-06-24T00:44:30;25.90;;;16.95;;
62401;SDS011;48440;51.224;22.506;2023-06-24T00:46:55;28.33;;;15.75;;
62401;SDS011;48440;51.224;22.506;2023-06-24T00:49:21;27.02;;;16.13;;
62401;SDS011;48440;51.224;22.506;2023-06-24T00:51:46;21.48;;;15.13;;
62401;SDS011;48440;51.224;22.506;2023-06-24T00:54:15;19.05;;;14.20;;
62401;SDS011;48440;51.224;22.506;2023-06-24T00:56:45;20.73;;;13.48;;
62401;SDS011;48440;51.224;22.506;2023-06-24T00:59:15;22.00;;;11.88;;
62401;SDS011;48440;51.224;22.506;2023-06-24T01:01:41;18.98;;;11.63;;
62401;SDS011;48440;51.224;22.506;2023-06-24T01:04:08;17.70;;;11.07;;
62401;SDS011;48440;51.224;22.506;2023-06-24T01:06:34;19.65;;;11.43;;
62401;SDS011;48440;51.224;22.506;2023-06-24T01:09:01;18.88;;;10.82;;
62401;SDS011;48440;51.224;22.506;2023-06-24T01:11:28;15.48;;;10.82;;
62401;SDS011;48440;51.224;22.506;2023-06-24T01:13:55;18.38;;;11.38;;
62401;SDS011;48440;51.224;22.506;2023-06-24T01:19:29;18.27;;;10.25;;
62401;SDS011;48440;51.224;22.506;2023-06-24T01:22:19;17.70;;;10.20;;
62401;SDS011;48440;51.224;22.506;2023-06-24T01:33:46;15.30;;;9.60;;
62401;SDS011;48440;51.224;22.506;2023-06-24T01:36:15;17.77;;;9.85;;
62401;SDS011;48440;51.224;22.506;2023-06-24T01:38:46;17.88;;;9.25;;
62401;SDS011;48440;51.224;22.506;2023-06-24T01:41:19;15.80;;;8.70;;
62401;SDS011;48440;51.224;22.506;2023-06-24T01:43:47;13.32;;;8.27;;
62401;SDS011;48440;51.224;22.506;2023-06-24T01:46:17;14.52;;;8.77;;
62401;SDS011;48440;51.224;22.506;2023-06-24T01:48:47;16.88;;;9.25;;
62401;SDS011;48440;51.224;22.506;2023-06-24T01:51:17;15.30;;;8.95;;
62401;SDS011;48440;51.224;22.506;2023-06-24T01:53:48;16.92;;;9.02;;
62401;SDS011;48440;51.224;22.506;2023-06-24T01:56:16;14.38;;;8.80;;
62401;SDS011;48440;51.224;22.506;2023-06-24T01:58:43;14.55;;;8.18;;
62401;SDS011;48440;51.224;22.506;2023-06-24T02:01:11;16.05;;;8.50;;
62401;SDS011;48440;51.224;22.506;2023-06-24T02:03:38;13.45;;;8.85;;
62401;SDS011;48440;51.224;22.506;2023-06-24T02:06:06;12.25;;;8.27;;
62401;SDS011;48440;51.224;22.506;2023-06-24T02:08:34;16.98;;;8.40;;
62401;SDS011;48440;51.224;22.506;2023-06-24T02:11:02;16.38;;;8.63;;
62401;SDS011;48440;51.224;22.506;2023-06-24T02:13:30;15.73;;;8.20;;
62401;SDS011;48440;51.224;22.506;2023-06-24T02:15:58;12.75;;;7.82;;
62401;SDS011;48440;51.224;22.506;2023-06-24T02:18:26;13.07;;;8.32;;
62401;SDS011;48440;51.224;22.506;2023-06-24T02:20:52;17.17;;;8.50;;
62401;SDS011;48440;51.224;22.506;2023-06-24T02:23:20;12.60;;;8.32;;
62401;SDS011;48440;51.224;22.506;2023-06-24T02:25:47;16.55;;;7.72;;
62401;SDS011;48440;51.224;22.506;2023-06-24T02:28:14;12.90;;;7.63;;
62401;SDS011;48440;51.224;22.506;2023-06-24T02:30:41;13.68;;;8.27;;
62401;SDS011;48440;51.224;22.506;2023-06-24T02:33:07;14.93;;;7.82;;
62401;SDS011;48440;51.224;22.506;2023-06-24T02:35:32;14.85;;;7.47;;
62401;SDS011;48440;51.224;22.506;2023-06-24T02:37:58;11.13;;;7.60;;
62401;SDS011;48440;51.224;22.506;2023-06-24T02:40:24;11.85;;;7.60;;
62401;SDS011;48440;51.224;22.506;2023-06-24T02:42:51;13.52;;;7.35;;
62401;SDS011;48440;51.224;22.506;2023-06-24T02:45:17;10.90;;;6.97;;
62401;SDS011;48440;51.224;22.506;2023-06-24T02:47:44;14.05;;;7.70;;
62401;SDS011;48440;51.224;22.506;2023-06-24T02:50:11;16.05;;;8.05;;
62401;SDS011;48440;51.224;22.506;2023-06-24T02:52:37;10.57;;;7.35;;
62401;SDS011;48440;51.224;22.506;2023-06-24T02:55:04;14.60;;;7.63;;
62401;SDS011;48440;51.224;22.506;2023-06-24T02:57:31;11.07;;;6.80;;
62401;SDS011;48440;51.224;22.506;2023-06-24T02:59:57;14.30;;;7.13;;
62401;SDS011;48440;51.224;22.506;2023-06-24T03:02:23;11.48;;;7.32;;
62401;SDS011;48440;51.224;22.506;2023-06-24T03:04:50;12.70;;;6.78;;
62401;SDS011;48440;51.224;22.506;2023-06-24T03:07:17;12.82;;;7.65;;
62401;SDS011;48440;51.224;22.506;2023-06-24T03:09:46;11.18;;;6.80;;
62401;SDS011;48440;51.224;22.506;2023-06-24T03:12:12;13.05;;;6.90;;
62401;SDS011;48440;51.224;22.506;2023-06-24T03:14:38;12.15;;;6.72;;
62401;SDS011;48440;51.224;22.506;2023-06-24T03:17:03;15.90;;;7.25;;
62401;SDS011;48440;51.224;22.506;2023-06-24T03:19:29;11.50;;;7.25;;
62401;SDS011;48440;51.224;22.506;2023-06-24T03:21:54;12.02;;;7.32;;
62401;SDS011;48440;51.224;22.506;2023-06-24T03:24:20;12.55;;;7.22;;
62401;SDS011;48440;51.224;22.506;2023-06-24T03:26:45;12.85;;;7.50;;
62401;SDS011;48440;51.224;22.506;2023-06-24T03:29:11;12.73;;;6.80;;
62401;SDS011;48440;51.224;22.506;2023-06-24T03:31:37;10.50;;;6.53;;
62401;SDS011;48440;51.224;22.506;2023-06-24T03:34:09;15.32;;;7.45;;
62401;SDS011;48440;51.224;22.506;2023-06-24T03:36:35;12.90;;;6.65;;
62401;SDS011;48440;51.224;22.506;2023-06-24T03:39:03;14.82;;;6.78;;
62401;SDS011;48440;51.224;22.506;2023-06-24T03:41:29;11.43;;;7.10;;
62401;SDS011;48440;51.224;22.506;2023-06-24T03:43:55;13.50;;;7.07;;
62401;SDS011;48440;51.224;22.506;2023-06-24T03:46:20;11.68;;;7.15;;
62401;SDS011;48440;51.224;22.506;2023-06-24T03:48:46;9.95;;;6.70;;
62401;SDS011;48440;51.224;22.506;2023-06-24T03:51:12;13.93;;;7.23;;
62401;SDS011;48440;51.224;22.506;2023-06-24T03:53:37;13.73;;;7.50;;
62401;SDS011;48440;51.224;22.506;2023-06-24T03:56:04;10.00;;;6.57;;
62401;SDS011;48440;51.224;22.506;2023-06-24T03:58:29;11.00;;;6.53;;
62401;SDS011;48440;51.224;22.506;2023-06-24T04:00:55;11.07;;;6.72;;
62401;SDS011;48440;51.224;22.506;2023-06-24T04:03:23;13.52;;;6.93;;
62401;SDS011;48440;51.224;22.506;2023-06-24T04:05:51;10.60;;;7.13;;
62401;SDS011;48440;51.224;22.506;2023-06-24T04:08:18;10.73;;;7.15;;
62401;SDS011;48440;51.224;22.506;2023-06-24T04:10:43;12.65;;;6.38;;
62401;SDS011;48440;51.224;22.506;2023-06-24T04:13:09;12.18;;;7.15;;
62401;SDS011;48440;51.224;22.506;2023-06-24T04:15:35;12.20;;;7.10;;
62401;SDS011;48440;51.224;22.506;2023-06-24T04:18:00;11.88;;;6.93;;
62401;SDS011;48440;51.224;22.506;2023-06-24T04:20:26;14.75;;;7.30;;
62401;SDS011;48440;51.224;22.506;2023-06-24T04:22:51;15.10;;;7.40;;
62401;SDS011;48440;51.224;22.506;2023-06-24T04:25:17;10.40;;;6.78;;
62401;SDS011;48440;51.224;22.506;2023-06-24T04:27:43;12.52;;;6.80;;
62401;SDS011;48440;51.224;22.506;2023-06-24T04:30:08;13.38;;;7.10;;
62401;SDS011;48440;51.224;22.506;2023-06-24T04:32:34;13.38;;;7.22;;
62401;SDS011;48440;51.224;22.506;2023-06-24T04:35:00;10.85;;;7.88;;
62401;SDS011;48440;51.224;22.506;2023-06-24T04:37:26;15.73;;;6.97;;
62401;SDS011;48440;51.224;22.506;2023-06-24T04:39:51;9.82;;;6.65;;
62401;SDS011;48440;51.224;22.506;2023-06-24T04:42:17;12.15;;;6.38;;
62401;SDS011;48440;51.224;22.506;2023-06-24T04:44:43;12.65;;;6.38;;
62401;SDS011;48440;51.224;22.506;2023-06-24T04:47:08;9.85;;;6.65;;
62401;SDS011;48440;51.224;22.506;2023-06-24T04:49:34;14.18;;;6.85;;
62401;SDS011;48440;51.224;22.506;2023-06-24T04:52:00;12.88;;;6.70;;
62401;SDS011;48440;51.224;22.506;2023-06-24T04:54:26;13.32;;;6.60;;
62401;SDS011;48440;51.224;22.506;2023-06-24T04:56:52;12.82;;;6.40;;
62401;SDS011;48440;51.224;22.506;2023-06-24T04:59:20;12.57;;;6.70;;
62401;SDS011;48440;51.224;22.506;2023-06-24T05:01:46;11.40;;;6.88;;
62401;SDS011;48440;51.224;22.506;2023-06-24T05:04:12;11.98;;;6.57;;
62401;SDS011;48440;51.224;22.506;2023-06-24T05:06:37;12.98;;;6.95;;
62401;SDS011;48440;51.224;22.506;2023-06-24T05:09:03;13.60;;;7.82;;
62401;SDS011;48440;51.224;22.506;2023-06-24T05:11:28;12.25;;;6.97;;
62401;SDS011;48440;51.224;22.506;2023-06-24T05:13:54;11.70;;;7.13;;
62401;SDS011;48440;51.224;22.506;2023-06-24T05:16:19;9.20;;;6.40;;
62401;SDS011;48440;51.224;22.506;2023-06-24T05:18:45;11.30;;;6.97;;
62401;SDS011;48440;51.224;22.506;2023-06-24T05:21:11;11.75;;;6.10;;
62401;SDS011;48440;51.224;22.506;2023-06-24T05:23:36;12.38;;;6.80;;
62401;SDS011;48440;51.224;22.506;2023-06-24T05:26:02;13.80;;;6.63;;
62401;SDS011;48440;51.224;22.506;2023-06-24T05:28:28;10.82;;;6.53;;
62401;SDS011;48440;51.224;22.506;2023-06-24T05:30:53;10.50;;;6.68;;
62401;SDS011;48440;51.224;22.506;2023-06-24T05:33:18;10.27;;;6.43;;
62401;SDS011;48440;51.224;22.506;2023-06-24T05:35:44;10.75;;;6.13;;
62401;SDS011;48440;51.224;22.506;2023-06-24T05:38:09;10.32;;;6.70;;
62401;SDS011;48440;51.224;22.506;2023-06-24T05:40:35;9.77;;;6.13;;
62401;SDS011;48440;51.224;22.506;2023-06-24T05:43:01;9.95;;;6.20;;
62401;SDS011;48440;51.224;22.506;2023-06-24T05:45:28;11.85;;;6.72;;
62401;SDS011;48440;51.224;22.506;2023-06-24T05:47:53;9.90;;;6.30;;
62401;SDS011;48440;51.224;22.506;2023-06-24T05:50:19;9.95;;;6.28;;
62401;SDS011;48440;51.224;22.506;2023-06-24T05:52:44;10.10;;;6.20;;
62401;SDS011;48440;51.224;22.506;2023-06-24T05:55:10;14.10;;;6.07;;
62401;SDS011;48440;51.224;22.506;2023-06-24T05:57:35;10.40;;;6.43;;
62401;SDS011;48440;51.224;22.506;2023-06-24T06:00:01;9.43;;;5.80;;
62401;SDS011;48440;51.224;22.506;2023-06-24T06:02:28;9.70;;;6.47;;
62401;SDS011;48440;51.224;22.506;2023-06-24T06:04:53;9.85;;;6.28;;
62401;SDS011;48440;51.224;22.506;2023-06-24T06:07:19;12.85;;;5.93;;
62401;SDS011;48440;51.224;22.506;2023-06-24T06:09:44;12.38;;;6.30;;
62401;SDS011;48440;51.224;22.506;2023-06-24T06:12:10;13.55;;;6.35;;
62401;SDS011;48440;51.224;22.506;2023-06-24T06:14:36;10.25;;;6.38;;
62401;SDS011;48440;51.224;22.506;2023-06-24T06:17:01;12.90;;;6.97;;
62401;SDS011;48440;51.224;22.506;2023-06-24T06:19:27;12.35;;;6.15;;
62401;SDS011;48440;51.224;22.506;2023-06-24T06:21:52;13.60;;;6.75;;
62401;SDS011;48440;51.224;22.506;2023-06-24T06:24:18;11.15;;;6.45;;
62401;SDS011;48440;51.224;22.506;2023-06-24T06:26:44;10.02;;;6.50;;
62401;SDS011;48440;51.224;22.506;2023-06-24T06:29:12;11.63;;;6.50;;
62401;SDS011;48440;51.224;22.506;2023-06-24T06:31:38;12.85;;;6.60;;
62401;SDS011;48440;51.224;22.506;2023-06-24T06:34:04;11.52;;;6.22;;
62401;SDS011;48440;51.224;22.506;2023-06-24T06:36:30;10.02;;;6.22;;
62401;SDS011;48440;51.224;22.506;2023-06-24T06:38:56;10.98;;;6.45;;
62401;SDS011;48440;51.224;22.506;2023-06-24T06:41:22;10.40;;;5.90;;
62401;SDS011;48440;51.224;22.506;2023-06-24T06:43:50;8.40;;;6.05;;
62401;SDS011;48440;51.224;22.506;2023-06-24T06:46:16;11.32;;;5.75;;
62401;SDS011;48440;51.224;22.506;2023-06-24T06:48:42;9.57;;;6.32;;
62401;SDS011;48440;51.224;22.506;2023-06-24T06:51:07;10.38;;;6.25;;
62401;SDS011;48440;51.224;22.506;2023-06-24T06:53:36;9.70;;;6.50;;
62401;SDS011;48440;51.224;22.506;2023-06-24T06:56:01;11.80;;;5.65;;
62401;SDS011;48440;51.224;22.506;2023-06-24T06:58:27;8.75;;;6.10;;
62401;SDS011;48440;51.224;22.506;2023-06-24T07:00:53;9.88;;;6.03;;
62401;SDS011;48440;51.224;22.506;2023-06-24T07:03:18;8.70;;;5.70;;
62401;SDS011;48440;51.224;22.506;2023-06-24T07:05:43;8.30;;;5.85;;
62401;SDS011;48440;51.224;22.506;2023-06-24T07:08:09;7.38;;;5.70;;
62401;SDS011;48440;51.224;22.506;2023-06-24T07:10:35;8.05;;;5.85;;
62401;SDS011;48440;51.224;22.506;2023-06-24T07:13:00;10.65;;;5.90;;
62401;SDS011;48440;51.224;22.506;2023-06-24T07:15:26;8.73;;;5.82;;
62401;SDS011;48440;51.224;22.506;2023-06-24T07:17:52;11.82;;;5.38;;
62401;SDS011;48440;51.224;22.506;2023-06-24T07:20:20;9.18;;;5.72;;
62401;SDS011;48440;51.224;22.506;2023-06-24T07:22:47;9.45;;;5.50;;
62401;SDS011;48440;51.224;22.506;2023-06-24T07:25:15;8.43;;;5.72;;
62401;SDS011;48440;51.224;22.506;2023-06-24T07:27:44;12.25;;;6.03;;
62401;SDS011;48440;51.224;22.506;2023-06-24T07:30:12;8.32;;;5.97;;
62401;SDS011;48440;51.224;22.506;2023-06-24T07:32:38;8.50;;;5.93;;
62401;SDS011;48440;51.224;22.506;2023-06-24T07:35:04;10.07;;;6.32;;
62401;SDS011;48440;51.224;22.506;2023-06-24T07:37:31;8.13;;;5.68;;
62401;SDS011;48440;51.224;22.506;2023-06-24T07:39:57;9.60;;;6.45;;
62401;SDS011;48440;51.224;22.506;2023-06-24T07:42:27;8.45;;;5.28;;
62401;SDS011;48440;51.224;22.506;2023-06-24T07:45:19;9.30;;;6.10;;
62401;SDS011;48440;51.224;22.506;2023-06-24T07:48:02;8.20;;;5.53;;
62401;SDS011;48440;51.224;22.506;2023-06-24T07:50:28;7.88;;;5.78;;
62401;SDS011;48440;51.224;22.506;2023-06-24T07:53:05;7.22;;;5.53;;
62401;SDS011;48440;51.224;22.506;2023-06-24T07:55:35;9.55;;;5.97;;
62401;SDS011;48440;51.224;22.506;2023-06-24T07:58:05;10.80;;;5.63;;
62401;SDS011;48440;51.224;22.506;2023-06-24T08:00:33;9.10;;;5.68;;
62401;SDS011;48440;51.224;22.506;2023-06-24T08:03:00;8.82;;;6.30;;
62401;SDS011;48440;51.224;22.506;2023-06-24T08:05:28;8.38;;;5.38;;
62401;SDS011;48440;51.224;22.506;2023-06-24T08:07:57;9.20;;;5.90;;
62401;SDS011;48440;51.224;22.506;2023-06-24T08:10:54;7.82;;;5.80;;
62401;SDS011;48440;51.224;22.506;2023-06-24T08:15:55;10.93;;;5.65;;
62401;SDS011;48440;51.224;22.506;2023-06-24T08:18:25;6.68;;;5.05;;
62401;SDS011;48440;51.224;22.506;2023-06-24T08:20:59;7.53;;;5.40;;
62401;SDS011;48440;51.224;22.506;2023-06-24T08:23:25;7.32;;;5.35;;
62401;SDS011;48440;51.224;22.506;2023-06-24T08:25:51;8.52;;;5.30;;
62401;SDS011;48440;51.224;22.506;2023-06-24T08:28:16;9.65;;;5.47;;
62401;SDS011;48440;51.224;22.506;2023-06-24T08:30:41;10.32;;;5.35;;
62401;SDS011;48440;51.224;22.506;2023-06-24T08:33:07;8.77;;;5.30;;
62401;SDS011;48440;51.224;22.506;2023-06-24T08:35:32;10.75;;;5.68;;
62401;SDS011;48440;51.224;22.506;2023-06-24T08:37:57;9.98;;;5.45;;
62401;SDS011;48440;51.224;22.506;2023-06-24T08:40:23;8.02;;;5.78;;
62401;SDS011;48440;51.224;22.506;2023-06-24T08:42:48;9.88;;;5.30;;
62401;SDS011;48440;51.224;22.506;2023-06-24T08:45:14;6.97;;;5.20;;
62401;SDS011;48440;51.224;22.506;2023-06-24T08:47:40;7.68;;;4.60;;
62401;SDS011;48440;51.224;22.506;2023-06-24T08:50:12;8.57;;;5.35;;
62401;SDS011;48440;51.224;22.506;2023-06-24T08:52:48;7.70;;;4.30;;
62401;SDS011;48440;51.224;22.506;2023-06-24T08:55:17;6.43;;;4.55;;
62401;SDS011;48440;51.224;22.506;2023-06-24T08:57:45;6.78;;;4.90;;
62401;SDS011;48440;51.224;22.506;2023-06-24T09:00:11;9.10;;;4.63;;
62401;SDS011;48440;51.224;22.506;2023-06-24T09:02:37;8.85;;;4.55;;
62401;SDS011;48440;51.224;22.506;2023-06-24T09:05:04;9.20;;;4.45;;
62401;SDS011;48440;51.224;22.506;2023-06-24T09:07:31;8.57;;;4.65;;
62401;SDS011;48440;51.224;22.506;2023-06-24T09:09:56;6.25;;;3.85;;
62401;SDS011;48440;51.224;22.506;2023-06-24T09:12:23;6.53;;;4.18;;
62401;SDS011;48440;51.224;22.506;2023-06-24T09:14:50;6.70;;;4.00;;
62401;SDS011;48440;51.224;22.506;2023-06-24T09:17:16;8.90;;;5.20;;
62401;SDS011;48440;51.224;22.506;2023-06-24T09:19:42;11.30;;;5.30;;
62401;SDS011;48440;51.224;22.506;2023-06-24T09:22:09;7.00;;;4.70;;
62401;SDS011;48440;51.224;22.506;2023-06-24T09:24:42;6.65;;;4.68;;
62401;SDS011;48440;51.224;22.506;2023-06-24T09:27:13;6.78;;;4.30;;
62401;SDS011;48440;51.224;22.506;2023-06-24T09:29:39;5.20;;;3.97;;
62401;SDS011;48440;51.224;22.506;2023-06-24T09:32:06;5.97;;;4.28;;
62401;SDS011;48440;51.224;22.506;2023-06-24T09:34:32;7.97;;;3.78;;
62401;SDS011;48440;51.224;22.506;2023-06-24T09:36:58;6.45;;;4.65;;
62401;SDS011;48440;51.224;22.506;2023-06-24T09:39:25;5.10;;;4.10;;
62401;SDS011;48440;51.224;22.506;2023-06-24T09:41:55;7.72;;;4.55;;
62401;SDS011;48440;51.224;22.506;2023-06-24T09:44:25;9.52;;;4.38;;
62401;SDS011;48440;51.224;22.506;2023-06-24T09:46:52;8.02;;;4.55;;
62401;SDS011;48440;51.224;22.506;2023-06-24T09:49:18;5.78;;;4.78;;
62401;SDS011;48440;51.224;22.506;2023-06-24T09:51:44;6.28;;;4.38;;
62401;SDS011;48440;51.224;22.506;2023-06-24T09:54:12;7.05;;;4.20;;
62401;SDS011;48440;51.224;22.506;2023-06-24T09:56:42;5.38;;;4.10;;
62401;SDS011;48440;51.224;22.506;2023-06-24T09:59:10;6.88;;;4.40;;
62401;SDS011;48440;51.224;22.506;2023-06-24T10:01:38;10.15;;;4.40;;
62401;SDS011;48440;51.224;22.506;2023-06-24T10:04:06;6.38;;;4.28;;
62401;SDS011;48440;51.224;22.506;2023-06-24T10:06:33;5.50;;;4.00;;
62401;SDS011;48440;51.224;22.506;2023-06-24T10:08:59;7.63;;;4.25;;
62401;SDS011;48440;51.224;22.506;2023-06-24T10:11:25;4.72;;;3.80;;
62401;SDS011;48440;51.224;22.506;2023-06-24T10:13:51;5.90;;;4.30;;
62401;SDS011;48440;51.224;22.506;2023-06-24T10:16:17;6.05;;;4.18;;
62401;SDS011;48440;51.224;22.506;2023-06-24T10:18:44;5.38;;;3.90;;
62401;SDS011;48440;51.224;22.506;2023-06-24T10:21:10;6.03;;;4.70;;
62401;SDS011;48440;51.224;22.506;2023-06-24T10:26:25;6.05;;;4.63;;
62401;SDS011;48440;51.224;22.506;2023-06-24T10:37:13;4.80;;;3.90;;
62401;SDS011;48440;51.224;22.506;2023-06-24T10:47:34;6.22;;;4.30;;
62401;SDS011;48440;51.224;22.506;2023-06-24T10:50:01;5.40;;;3.53;;
62401;SDS011;48440;51.224;22.506;2023-06-24T10:52:27;5.93;;;3.70;;
62401;SDS011;48440;51.224;22.506;2023-06-24T10:54:53;5.03;;;3.90;;
62401;SDS011;48440;51.224;22.506;2023-06-24T10:57:23;5.63;;;3.75;;
62401;SDS011;48440;51.224;22.506;2023-06-24T10:59:50;5.13;;;3.72;;
62401;SDS011;48440;51.224;22.506;2023-06-24T11:02:17;5.75;;;3.45;;
62401;SDS011;48440;51.224;22.506;2023-06-24T11:04:48;5.93;;;3.53;;
62401;SDS011;48440;51.224;22.506;2023-06-24T11:07:16;8.45;;;3.50;;
62401;SDS011;48440;51.224;22.506;2023-06-24T11:09:48;5.97;;;3.45;;
62401;SDS011;48440;51.224;22.506;2023-06-24T11:12:18;6.50;;;3.50;;
62401;SDS011;48440;51.224;22.506;2023-06-24T11:14:44;4.25;;;3.40;;
62401;SDS011;48440;51.224;22.506;2023-06-24T11:17:10;4.05;;;3.40;;
62401;SDS011;48440;51.224;22.506;2023-06-24T11:19:35;6.28;;;3.63;;
62401;SDS011;48440;51.224;22.506;2023-06-24T11:22:04;7.20;;;3.70;;
62401;SDS011;48440;51.224;22.506;2023-06-24T11:24:31;6.85;;;3.67;;
62401;SDS011;48440;51.224;22.506;2023-06-24T11:26:57;5.40;;;3.75;;
62401;SDS011;48440;51.224;22.506;2023-06-24T11:29:22;5.40;;;3.80;;
62401;SDS011;48440;51.224;22.506;2023-06-24T11:31:48;5.13;;;3.58;;
62401;SDS011;48440;51.224;22.506;2023-06-24T11:34:14;7.57;;;3.78;;
62401;SDS011;48440;51.224;22.506;2023-06-24T11:36:40;6.57;;;3.70;;
62401;SDS011;48440;51.224;22.506;2023-06-24T11:39:06;4.22;;;3.20;;
62401;SDS011;48440;51.224;22.506;2023-06-24T11:41:32;5.35;;;3.25;;
62401;SDS011;48440;51.224;22.506;2023-06-24T11:43:58;6.63;;;3.33;;
62401;SDS011;48440;51.224;22.506;2023-06-24T11:46:27;5.68;;;3.38;;
62401;SDS011;48440;51.224;22.506;2023-06-24T11:49:08;7.60;;;3.17;;
62401;SDS011;48440;51.224;22.506;2023-06-24T11:51:34;5.32;;;4.03;;
62401;SDS011;48440;51.224;22.506;2023-06-24T11:54:04;5.25;;;3.55;;
62401;SDS011;48440;51.224;22.506;2023-06-24T11:57:12;7.32;;;3.55;;
62401;SDS011;48440;51.224;22.506;2023-06-24T11:59:20;4.82;;;3.13;;
62401;SDS011;48440;51.224;22.506;2023-06-24T12:01:52;10.73;;;3.73;;
62401;SDS011;48440;51.224;22.506;2023-06-24T12:04:23;6.50;;;3.65;;
62401;SDS011;48440;51.224;22.506;2023-06-24T12:06:53;5.88;;;3.30;;
62401;SDS011;48440;51.224;22.506;2023-06-24T12:09:19;14.48;;;3.95;;
62401;SDS011;48440;51.224;22.506;2023-06-24T12:11:45;71.07;;;9.68;;
62401;SDS011;48440;51.224;22.506;2023-06-24T12:14:11;41.10;;;7.05;;
62401;SDS011;48440;51.224;22.506;2023-06-24T12:16:37;82.90;;;7.90;;
62401;SDS011;48440;51.224;22.506;2023-06-24T12:19:03;21.67;;;5.05;;
62401;SDS011;48440;51.224;22.506;2023-06-24T12:21:28;14.80;;;4.60;;
62401;SDS011;48440;51.224;22.506;2023-06-24T12:23:54;11.48;;;4.45;;
62401;SDS011;48440;51.224;22.506;2023-06-24T12:26:19;12.68;;;4.60;;
62401;SDS011;48440;51.224;22.506;2023-06-24T12:28:45;9.50;;;4.65;;
62401;SDS011;48440;51.224;22.506;2023-06-24T12:31:10;8.65;;;4.03;;
62401;SDS011;48440;51.224;22.506;2023-06-24T12:33:36;7.13;;;4.15;;
62401;SDS011;48440;51.224;22.506;2023-06-24T12:36:02;7.47;;;4.47;;
62401;SDS011;48440;51.224;22.506;2023-06-24T12:38:27;7.57;;;4.15;;
62401;SDS011;48440;51.224;22.506;2023-06-24T12:40:53;6.10;;;4.28;;
62401;SDS011;48440;51.224;22.506;2023-06-24T12:43:18;5.75;;;4.00;;
62401;SDS011;48440;51.224;22.506;2023-06-24T12:45:44;5.97;;;4.10;;
62401;SDS011;48440;51.224;22.506;2023-06-24T12:48:09;6.13;;;3.83;;
62401;SDS011;48440;51.224;22.506;2023-06-24T12:50:35;5.93;;;4.00;;
62401;SDS011;48440;51.224;22.506;2023-06-24T12:53:01;4.75;;;3.63;;
62401;SDS011;48440;51.224;22.506;2023-06-24T12:55:28;6.50;;;3.75;;
62401;SDS011;48440;51.224;22.506;2023-06-24T12:57:54;6.07;;;3.28;;
62401;SDS011;48440;51.224;22.506;2023-06-24T13:00:20;5.40;;;3.55;;
62401;SDS011;48440;51.224;22.506;2023-06-24T13:02:46;5.53;;;3.70;;
62401;SDS011;48440;51.224;22.506;2023-06-24T13:05:12;5.40;;;3.60;;
62401;SDS011;48440;51.224;22.506;2023-06-24T13:07:37;5.03;;;3.72;;
62401;SDS011;48440;51.224;22.506;2023-06-24T13:10:03;6.60;;;4.18;;
62401;SDS011;48440;51.224;22.506;2023-06-24T13:12:31;6.80;;;3.67;;
62401;SDS011;48440;51.224;22.506;2023-06-24T13:14:58;7.45;;;4.00;;
62401;SDS011;48440;51.224;22.506;2023-06-24T13:17:23;8.15;;;3.88;;
62401;SDS011;48440;51.224;22.506;2023-06-24T13:19:50;8.13;;;3.83;;
62401;SDS011;48440;51.224;22.506;2023-06-24T13:22:16;4.63;;;3.40;;
62401;SDS011;48440;51.224;22.506;2023-06-24T13:24:41;6.72;;;3.63;;
62401;SDS011;48440;51.224;22.506;2023-06-24T13:27:07;6.93;;;3.53;;
62401;SDS011;48440;51.224;22.506;2023-06-24T13:29:32;8.65;;;3.70;;
62401;SDS011;48440;51.224;22.506;2023-06-24T13:31:58;6.43;;;3.97;;
62401;SDS011;48440;51.224;22.506;2023-06-24T13:34:24;6.35;;;3.42;;
62401;SDS011;48440;51.224;22.506;2023-06-24T13:36:49;5.57;;;4.13;;
62401;SDS011;48440;51.224;22.506;2023-06-24T13:39:15;8.32;;;4.78;;
62401;SDS011;48440;51.224;22.506;2023-06-24T13:41:44;7.03;;;4.65;;
62401;SDS011;48440;51.224;22.506;2023-06-24T13:44:09;6.40;;;4.60;;
62401;SDS011;48440;51.224;22.506;2023-06-24T13:46:35;7.20;;;4.80;;
62401;SDS011;48440;51.224;22.506;2023-06-24T13:49:01;7.55;;;5.30;;
62401;SDS011;48440;51.224;22.506;2023-06-24T13:51:27;14.93;;;7.15;;
62401;SDS011;48440;51.224;22.506;2023-06-24T13:53:53;16.08;;;7.85;;
62401;SDS011;48440;51.224;22.506;2023-06-24T13:56:20;12.07;;;7.20;;
62401;SDS011;48440;51.224;22.506;2023-06-24T13:58:46;12.05;;;7.75;;
62401;SDS011;48440;51.224;22.506;2023-06-24T14:01:12;15.30;;;7.55;;
62401;SDS011;48440;51.224;22.506;2023-06-24T14:03:38;9.50;;;7.28;;
62401;SDS011;48440;51.224;22.506;2023-06-24T14:06:04;12.55;;;7.15;;
62401;SDS011;48440;51.224;22.506;2023-06-24T14:08:30;10.65;;;6.32;;
62401;SDS011;48440;51.224;22.506;2023-06-24T14:10:57;11.32;;;6.82;;
62401;SDS011;48440;51.224;22.506;2023-06-24T14:13:23;9.35;;;7.25;;
62401;SDS011;48440;51.224;22.506;2023-06-24T14:15:49;9.82;;;6.93;;
62401;SDS011;48440;51.224;22.506;2023-06-24T14:18:14;11.00;;;7.93;;
62401;SDS011;48440;51.224;22.506;2023-06-24T14:20:41;13.55;;;7.40;;
62401;SDS011;48440;51.224;22.506;2023-06-24T14:23:06;10.85;;;7.82;;
62401;SDS011;48440;51.224;22.506;2023-06-24T14:25:38;12.63;;;8.30;;
62401;SDS011;48440;51.224;22.506;2023-06-24T14:28:04;12.55;;;8.05;;
62401;SDS011;48440;51.224;22.506;2023-06-24T14:30:30;11.48;;;7.32;;
62401;SDS011;48440;51.224;22.506;2023-06-24T14:32:56;14.95;;;6.70;;
62401;SDS011;48440;51.224;22.506;2023-06-24T14:35:21;9.35;;;7.03;;
62401;SDS011;48440;51.224;22.506;2023-06-24T14:37:47;9.30;;;6.72;;
62401;SDS011;48440;51.224;22.506;2023-06-24T14:40:12;10.32;;;6.93;;
62401;SDS011;48440;51.224;22.506;2023-06-24T14:42:38;9.52;;;6.60;;
62401;SDS011;48440;51.224;22.506;2023-06-24T14:45:04;10.65;;;6.78;;
62401;SDS011;48440;51.224;22.506;2023-06-24T14:47:29;9.30;;;7.22;;
62401;SDS011;48440;51.224;22.506;2023-06-24T14:49:55;11.07;;;7.20;;
62401;SDS011;48440;51.224;22.506;2023-06-24T14:52:20;11.20;;;6.93;;
62401;SDS011;48440;51.224;22.506;2023-06-24T14:54:46;12.70;;;7.40;;
62401;SDS011;48440;51.224;22.506;2023-06-24T14:57:12;12.98;;;7.45;;